createdAt,value
2023-08-29T00:01:55.258Z,96386.09
2023-08-29T00:04:23.038Z,96387.47
2023-08-29T00:06:52.108Z,96388.78
2023-08-29T00:09:19.808Z,96388.47
2023-08-29T00:11:47.537Z,96382.75
2023-08-29T00:14:15.239Z,96377.91
2023-08-29T00:16:42.999Z,96383.94
2023-08-29T00:19:11.177Z,96394.84
2023-08-29T00:21:38.922Z,96391.47
2023-08-29T00:24:08.698Z,96394.31
2023-08-29T00:26:36.531Z,96381.75
2023-08-29T00:29:04.404Z,96368.84
2023-08-29T00:31:32.154Z,96364.81
2023-08-29T00:34:01.150Z,96375.03
2023-08-29T00:36:28.892Z,96371.69
2023-08-29T00:38:56.665Z,96381.91
2023-08-29T00:41:25.645Z,96385.25
2023-08-29T00:43:53.301Z,96389.81
2023-08-29T00:46:21.313Z,96389.63
2023-08-29T00:48:50.530Z,96398.50
2023-08-29T00:51:19.467Z,96405.72
2023-08-29T00:53:47.506Z,96396.81
2023-08-29T00:56:18.878Z,96390.31
2023-08-29T00:58:48.269Z,96393.31
2023-08-29T01:01:18.340Z,96395.50
2023-08-29T01:03:46.907Z,96399.00
2023-08-29T01:06:16.600Z,96404.06
2023-08-29T01:08:45.485Z,96395.84
2023-08-29T01:11:18.258Z,96395.66
2023-08-29T01:14:01.281Z,96405.41
2023-08-29T01:16:33.186Z,96394.97
2023-08-29T01:19:08.730Z,96402.31
2023-08-29T01:21:41.755Z,96404.66
2023-08-29T01:24:12.740Z,96404.97
2023-08-29T01:26:42.745Z,96402.63
2023-08-29T01:29:10.745Z,96401.63
2023-08-29T01:31:39.459Z,96398.78
2023-08-29T01:34:09.365Z,96392.59
2023-08-29T01:36:41.079Z,96396.59
2023-08-29T01:39:08.886Z,96398.44
2023-08-29T01:41:36.830Z,96402.13
2023-08-29T01:44:07.300Z,96395.94
2023-08-29T01:46:35.263Z,96397.31
2023-08-29T01:49:04.556Z,96396.44
2023-08-29T01:51:32.625Z,96393.09
2023-08-29T01:54:00.513Z,96398.97
2023-08-29T01:56:30.811Z,96387.22
2023-08-29T01:59:00.955Z,96383.88
2023-08-29T02:01:31.834Z,96389.56
2023-08-29T02:03:59.732Z,96386.72
2023-08-29T02:06:27.490Z,96389.09
2023-08-29T02:08:55.316Z,96380.00
2023-08-29T02:11:23.007Z,96379.19
2023-08-29T02:13:50.776Z,96379.19
2023-08-29T02:16:18.554Z,96374.31
2023-08-29T02:18:47.890Z,96368.63
2023-08-29T02:21:15.617Z,96365.78
2023-08-29T02:23:43.576Z,96370.47
2023-08-29T02:26:11.324Z,96362.47
2023-08-29T02:28:40.025Z,96364.28
2023-08-29T02:31:09.245Z,96360.78
2023-08-29T02:33:38.888Z,96358.09
2023-08-29T02:36:09.138Z,96363.47
2023-08-29T02:38:37.253Z,96361.91
2023-08-29T02:41:04.997Z,96356.25
2023-08-29T02:43:33.876Z,96358.44
2023-08-29T02:46:01.972Z,96355.44
2023-08-29T02:48:29.729Z,96363.47
2023-08-29T02:50:57.808Z,96359.97
2023-08-29T02:53:27.025Z,96360.13
2023-08-29T02:55:55.317Z,96358.44
2023-08-29T02:58:23.151Z,96360.28
2023-08-29T03:00:57.194Z,96357.94
2023-08-29T03:03:25.184Z,96345.84
2023-08-29T03:05:56.328Z,96347.72
2023-08-29T03:08:24.068Z,96352.09
2023-08-29T03:10:54.009Z,96351.38
2023-08-29T03:13:22.627Z,96351.59
2023-08-29T03:15:50.936Z,96346.38
2023-08-29T03:18:19.141Z,96345.00
2023-08-29T03:20:47.232Z,96347.50
2023-08-29T03:23:15.120Z,96346.19
2023-08-29T03:25:42.922Z,96341.31
2023-08-29T03:28:12.020Z,96338.63
2023-08-29T03:30:39.563Z,96342.47
2023-08-29T03:33:07.384Z,96337.09
2023-08-29T03:35:37.796Z,96331.91
2023-08-29T03:38:07.590Z,96339.63
2023-08-29T03:40:35.426Z,96331.75
2023-08-29T03:43:03.084Z,96330.09
2023-08-29T03:45:32.733Z,96334.75
2023-08-29T03:48:00.762Z,96328.88
2023-08-29T03:50:29.520Z,96336.09
2023-08-29T03:52:57.656Z,96330.41
2023-08-29T03:55:25.635Z,96333.91
2023-08-29T03:57:53.347Z,96337.75
2023-08-29T04:00:21.330Z,96333.25
2023-08-29T04:02:50.501Z,96330.22
2023-08-29T04:05:19.367Z,96332.75
2023-08-29T04:07:49.020Z,96331.22
2023-08-29T04:10:16.860Z,96340.59
2023-08-29T04:12:44.663Z,96342.44
2023-08-29T04:15:13.733Z,96339.75
2023-08-29T04:17:41.686Z,96336.91
2023-08-29T04:20:13.918Z,96331.88
2023-08-29T04:22:41.782Z,96328.53
2023-08-29T04:25:10.215Z,96333.06
2023-08-29T04:27:38.885Z,96336.59
2023-08-29T04:30:07.879Z,96333.25
2023-08-29T04:32:38.144Z,96335.44
2023-08-29T04:35:07.185Z,96327.00
2023-08-29T04:37:36.268Z,96337.06
2023-08-29T04:40:07.524Z,96325.69
2023-08-29T04:42:35.316Z,96338.75
2023-08-29T04:45:05.356Z,96330.53
2023-08-29T04:47:33.244Z,96332.72
2023-08-29T04:50:01.708Z,96335.41
2023-08-29T04:52:29.875Z,96335.56
2023-08-29T04:54:59.145Z,96333.06
2023-08-29T04:57:27.503Z,96325.19
2023-08-29T04:59:56.979Z,96326.84
2023-08-29T05:02:24.778Z,96331.53
2023-08-29T05:04:53.722Z,96334.91
2023-08-29T05:07:21.581Z,96325.84
2023-08-29T05:09:49.436Z,96329.88
2023-08-29T05:12:18.921Z,96329.19
2023-08-29T05:14:46.896Z,96333.25
2023-08-29T05:17:15.701Z,96326.03
2023-08-29T05:19:44.502Z,96331.06
2023-08-29T05:22:12.460Z,96327.53
2023-08-29T05:24:40.266Z,96334.56
2023-08-29T05:27:08.051Z,96333.91
2023-08-29T05:29:37.121Z,96331.22
2023-08-29T05:32:05.427Z,96329.72
2023-08-29T05:34:33.209Z,96328.22
2023-08-29T05:37:00.914Z,96337.28
2023-08-29T05:39:28.550Z,96341.16
2023-08-29T05:41:56.224Z,96329.56
2023-08-29T05:44:23.963Z,96331.25
2023-08-29T05:46:53.423Z,96328.72
2023-08-29T05:49:21.137Z,96332.13
2023-08-29T05:51:50.221Z,96330.63
2023-08-29T05:54:19.524Z,96334.63
2023-08-29T05:56:47.187Z,96335.28
2023-08-29T05:59:16.439Z,96338.69
2023-08-29T06:01:44.411Z,96338.69
2023-08-29T06:04:13.484Z,96335.13
2023-08-29T06:06:41.358Z,96345.03
2023-08-29T06:09:09.564Z,96335.28
2023-08-29T06:11:37.301Z,96329.44
2023-08-29T06:14:05.127Z,96334.97
2023-08-29T06:16:32.846Z,96342.00
2023-08-29T06:19:00.703Z,96342.50
2023-08-29T06:21:29.796Z,96343.50
2023-08-29T06:23:57.947Z,96342.84
2023-08-29T06:26:25.788Z,96350.56
2023-08-29T06:28:53.498Z,96354.94
2023-08-29T06:31:21.276Z,96350.25
2023-08-29T06:33:49.000Z,96354.59
2023-08-29T06:36:16.982Z,96360.28
2023-08-29T06:38:46.095Z,96361.78
2023-08-29T06:41:13.663Z,96361.13
2023-08-29T06:43:41.509Z,96368.50
2023-08-29T06:46:09.438Z,96365.47
2023-08-29T06:48:38.023Z,96365.13
2023-08-29T06:51:05.737Z,96364.13
2023-08-29T06:53:33.489Z,96370.88
2023-08-29T06:56:02.564Z,96370.19
2023-08-29T06:58:30.523Z,96372.69
2023-08-29T07:00:58.303Z,96378.75
2023-08-29T07:03:26.239Z,96378.59
2023-08-29T07:05:55.161Z,96379.25
2023-08-29T07:08:22.964Z,96382.94
2023-08-29T07:10:50.946Z,96382.94
2023-08-29T07:13:20.046Z,96385.44
2023-08-29T07:15:47.972Z,96385.78
2023-08-29T07:18:15.757Z,96393.66
2023-08-29T07:20:43.957Z,96400.41
2023-08-29T07:23:11.669Z,96396.03
2023-08-29T07:25:41.016Z,96397.19
2023-08-29T07:28:10.808Z,96400.72
2023-08-29T07:30:44.234Z,96400.72
2023-08-29T07:33:12.941Z,96405.59
2023-08-29T07:35:41.003Z,96401.72
2023-08-29T07:38:09.014Z,96410.78
2023-08-29T07:40:36.892Z,96409.63
2023-08-29T07:43:06.913Z,96407.09
2023-08-29T07:45:35.622Z,96404.06
2023-08-29T07:48:05.725Z,96408.78
2023-08-29T07:50:33.905Z,96406.59
2023-08-29T07:53:02.054Z,96421.19
2023-08-29T07:55:29.860Z,96416.34
2023-08-29T07:57:58.330Z,96429.41
2023-08-29T08:00:29.320Z,96428.25
2023-08-29T08:02:57.263Z,96438.31
2023-08-29T08:05:26.670Z,96437.13
2023-08-29T08:07:54.452Z,96442.31
2023-08-29T08:10:22.110Z,96443.34
2023-08-29T08:12:50.464Z,96440.31
2023-08-29T08:15:18.757Z,96439.66
2023-08-29T08:17:47.932Z,96441.00
2023-08-29T08:20:15.682Z,96444.84
2023-08-29T08:22:44.781Z,96444.00
2023-08-29T08:25:12.387Z,96440.31
2023-08-29T08:27:41.684Z,96444.69
2023-08-29T08:30:10.177Z,96443.69
2023-08-29T08:32:38.275Z,96445.34
2023-08-29T08:35:08.065Z,96447.88
2023-08-29T08:37:37.109Z,96447.53
2023-08-29T08:40:11.343Z,96451.91
2023-08-29T08:42:40.991Z,96458.09
2023-08-29T08:45:10.240Z,96456.09
2023-08-29T08:47:38.485Z,96460.47
2023-08-29T08:50:09.638Z,96458.44
2023-08-29T08:52:38.282Z,96456.09
2023-08-29T08:55:09.014Z,96458.78
2023-08-29T08:57:37.769Z,96450.38
2023-08-29T09:00:08.302Z,96453.06
2023-08-29T09:02:37.672Z,96456.63
2023-08-29T09:05:08.258Z,96457.44
2023-08-29T09:07:39.462Z,96455.41
2023-08-29T09:10:11.198Z,96458.78
2023-08-29T09:12:47.150Z,96463.97
2023-08-29T09:15:17.218Z,96472.38
2023-08-29T09:17:49.286Z,96472.72
2023-08-29T09:20:17.865Z,96465.50
2023-08-29T09:22:46.931Z,96465.50
2023-08-29T09:25:16.526Z,96469.19
2023-08-29T09:27:46.241Z,96464.84
2023-08-29T09:30:16.625Z,96462.16
2023-08-29T09:32:44.938Z,96458.91
2023-08-29T09:35:17.124Z,96451.00
2023-08-29T09:37:52.022Z,96458.09
2023-08-29T09:42:57.180Z,96462.28
2023-08-29T09:45:24.984Z,96458.09
2023-08-29T09:47:56.134Z,96453.06
2023-08-29T09:50:23.913Z,96456.25
2023-08-29T09:52:54.002Z,96454.91
2023-08-29T09:55:25.114Z,96452.56
2023-08-29T09:57:54.457Z,96455.03
2023-08-29T10:00:23.013Z,96460.91
2023-08-29T10:02:56.774Z,96464.97
2023-08-29T10:05:28.376Z,96468.78
2023-08-29T10:07:59.909Z,96472.00
2023-08-29T10:10:28.446Z,96474.31
2023-08-29T10:12:57.386Z,96473.81
2023-08-29T10:15:25.788Z,96473.78
2023-08-29T10:17:54.565Z,96472.00
2023-08-29T10:20:23.729Z,96469.59
2023-08-29T10:22:54.083Z,96472.59
2023-08-29T10:25:23.145Z,96467.59
2023-08-29T10:27:52.578Z,96464.41
2023-08-29T10:30:20.665Z,96469.00
2023-08-29T10:32:49.637Z,96473.56
2023-08-29T10:35:19.643Z,96468.34
2023-08-29T10:37:51.149Z,96464.31
2023-08-29T10:40:19.353Z,96472.03
2023-08-29T10:42:55.826Z,96474.22
2023-08-29T10:45:24.036Z,96470.47
2023-08-29T10:47:53.149Z,96468.63
2023-08-29T10:50:23.327Z,96468.69
2023-08-29T10:52:57.272Z,96465.34
2023-08-29T10:55:26.392Z,96455.34
2023-08-29T10:57:59.527Z,96455.41
2023-08-29T11:00:35.684Z,96453.19
2023-08-29T11:03:04.146Z,96453.94
2023-08-29T11:05:32.383Z,96448.84
2023-08-29T11:08:23.206Z,96447.88
2023-08-29T11:11:16.132Z,96444.53
2023-08-29T11:14:01.847Z,96437.44
2023-08-29T11:16:30.706Z,96441.78
2023-08-29T11:19:09.159Z,96430.34
2023-08-29T11:21:36.891Z,96428.16
2023-08-29T11:24:15.086Z,96435.53
2023-08-29T11:26:46.846Z,96429.47
2023-08-29T11:29:15.965Z,96428.69
2023-08-29T11:31:45.384Z,96424.78
2023-08-29T11:34:14.811Z,96423.41
2023-08-29T11:36:43.897Z,96426.16
2023-08-29T11:39:11.618Z,96427.13
2023-08-29T11:42:02.911Z,96430.91
2023-08-29T11:44:59.525Z,96428.97
2023-08-29T11:47:18.603Z,96429.59
2023-08-29T11:49:49.785Z,96425.41
2023-08-29T11:52:18.053Z,96427.94
2023-08-29T11:54:49.274Z,96427.50
2023-08-29T11:57:17.980Z,96429.16
2023-08-29T11:59:48.357Z,96426.66
2023-08-29T12:02:19.987Z,96434.50
2023-08-29T12:04:49.386Z,96437.78
2023-08-29T12:07:17.784Z,96435.47
2023-08-29T12:09:47.146Z,96438.81
2023-08-29T12:12:30.309Z,96440.56
2023-08-29T12:14:59.813Z,96437.81
2023-08-29T12:17:35.149Z,96447.00
2023-08-29T12:20:03.225Z,96447.50
2023-08-29T12:22:31.448Z,96449.38
2023-08-29T12:24:59.655Z,96443.69
2023-08-29T12:27:27.425Z,96443.91
2023-08-29T12:29:55.184Z,96437.53
2023-08-29T12:32:28.536Z,96448.16
2023-08-29T12:34:58.022Z,96450.72
2023-08-29T12:37:26.733Z,96452.59
2023-08-29T12:39:54.856Z,96441.28
2023-08-29T12:42:22.892Z,96439.13
2023-08-29T12:44:50.872Z,96448.47
2023-08-29T12:47:18.832Z,96443.94
2023-08-29T12:49:48.252Z,96437.53
2023-08-29T12:52:16.327Z,96444.63
2023-08-29T12:54:44.640Z,96442.56
2023-08-29T12:57:12.711Z,96438.16
2023-08-29T12:59:40.838Z,96444.38
2023-08-29T13:02:09.183Z,96442.78
2023-08-29T13:04:37.195Z,96442.69
2023-08-29T13:07:06.811Z,96435.91
2023-08-29T13:09:37.498Z,96434.59
2023-08-29T13:12:08.440Z,96430.91
2023-08-29T13:14:39.147Z,96435.00
2023-08-29T13:17:11.168Z,96424.00
2023-08-29T13:19:41.470Z,96431.00
2023-08-29T13:22:11.443Z,96432.00
2023-08-29T13:24:39.308Z,96431.53
2023-08-29T13:27:12.442Z,96430.00
2023-08-29T13:29:40.510Z,96436.56
2023-08-29T13:32:08.601Z,96424.88
2023-08-29T13:34:36.461Z,96430.84
2023-08-29T13:37:04.509Z,96421.47
2023-08-29T13:39:34.106Z,96425.81
2023-08-29T13:42:01.950Z,96415.75
2023-08-29T13:44:29.991Z,96409.88
2023-08-29T13:46:58.258Z,96409.59
2023-08-29T13:49:26.175Z,96402.06
2023-08-29T13:51:57.381Z,96403.38
2023-08-29T13:54:26.256Z,96406.91
2023-08-29T13:56:56.854Z,96414.19
2023-08-29T13:59:24.978Z,96407.28
2023-08-29T14:01:53.138Z,96408.59
2023-08-29T14:04:21.121Z,96405.53
2023-08-29T14:06:48.972Z,96397.19
2023-08-29T14:09:17.103Z,96407.19
2023-08-29T14:11:45.297Z,96400.03
2023-08-29T14:14:14.515Z,96408.03
2023-08-29T14:16:43.745Z,96402.63
2023-08-29T14:19:14.086Z,96399.34
2023-08-29T14:21:42.122Z,96403.97
2023-08-29T14:24:10.200Z,96402.16
2023-08-29T14:26:38.070Z,96408.97
2023-08-29T14:29:07.968Z,96403.66
2023-08-29T14:31:37.007Z,96409.59
2023-08-29T14:34:04.957Z,96407.63
2023-08-29T14:36:32.889Z,96413.44
2023-08-29T14:39:01.812Z,96415.31
2023-08-29T14:41:30.034Z,96413.94
2023-08-29T14:43:57.837Z,96418.88
2023-08-29T14:46:25.658Z,96419.00
2023-08-29T14:48:54.781Z,96417.06
2023-08-29T14:51:22.505Z,96409.22
2023-08-29T14:53:51.697Z,96409.09
2023-08-29T14:56:19.834Z,96417.22
2023-08-29T14:58:48.392Z,96407.03
2023-08-29T15:01:16.114Z,96412.03
2023-08-29T15:03:43.994Z,96408.66
2023-08-29T15:06:15.545Z,96402.47
2023-08-29T15:08:43.419Z,96409.97
2023-08-29T15:11:11.225Z,96410.22
2023-08-29T15:13:41.189Z,96397.94
2023-08-29T15:16:09.007Z,96397.88
2023-08-29T15:18:36.829Z,96403.75
2023-08-29T15:21:06.699Z,96400.03
2023-08-29T15:23:35.843Z,96404.75
2023-08-29T15:26:05.115Z,96407.47
2023-08-29T15:28:33.202Z,96410.56
2023-08-29T15:31:02.517Z,96404.22
2023-08-29T15:33:30.630Z,96415.66
2023-08-29T15:35:59.381Z,96406.47
2023-08-29T15:38:27.111Z,96395.47
2023-08-29T15:40:56.517Z,96404.13
2023-08-29T15:43:25.637Z,96405.13
2023-08-29T15:45:55.300Z,96413.72
2023-08-29T15:48:23.150Z,96403.84
2023-08-29T15:50:54.228Z,96413.78
2023-08-29T15:53:22.000Z,96412.28
2023-08-29T15:55:50.504Z,96411.28
2023-08-29T15:58:19.775Z,96410.31
2023-08-29T16:00:47.516Z,96416.41
2023-08-29T16:03:15.237Z,96407.38
2023-08-29T16:05:43.037Z,96417.59
2023-08-29T16:08:11.185Z,96420.00
2023-08-29T16:10:41.569Z,96417.88
2023-08-29T16:13:09.448Z,96419.47
2023-08-29T16:15:38.575Z,96433.78
2023-08-29T16:18:06.689Z,96427.84
2023-08-29T16:20:35.343Z,96432.00
2023-08-29T16:23:03.065Z,96427.28
2023-08-29T16:25:31.069Z,96430.97
2023-08-29T16:28:01.111Z,96429.78
2023-08-29T16:30:29.408Z,96427.91
2023-08-29T16:32:58.548Z,96436.66
2023-08-29T16:35:26.354Z,96439.16
2023-08-29T16:38:01.695Z,96446.78
2023-08-29T16:40:30.851Z,96444.09
2023-08-29T16:42:58.680Z,96449.84
2023-08-29T16:45:26.625Z,96443.91
2023-08-29T16:47:56.284Z,96450.25
2023-08-29T16:50:26.343Z,96458.53
2023-08-29T16:52:54.086Z,96455.53
2023-08-29T16:55:22.014Z,96457.84
2023-08-29T16:57:49.737Z,96462.13
2023-08-29T17:00:18.437Z,96474.31
2023-08-29T17:02:46.340Z,96459.50
2023-08-29T17:05:14.115Z,96458.69
2023-08-29T17:07:43.248Z,96460.28
2023-08-29T17:10:11.385Z,96466.72
2023-08-29T17:12:39.129Z,96467.06
2023-08-29T17:15:08.609Z,96467.41
2023-08-29T17:17:36.182Z,96473.09
2023-08-29T17:20:04.659Z,96468.88
2023-08-29T17:22:32.357Z,96473.78
2023-08-29T17:25:03.253Z,96469.63
2023-08-29T17:27:30.967Z,96468.13
2023-08-29T17:29:58.725Z,96462.63
2023-08-29T17:32:26.512Z,96459.63
2023-08-29T17:34:54.250Z,96460.66
2023-08-29T17:37:21.981Z,96466.03
2023-08-29T17:39:51.330Z,96466.84
2023-08-29T17:42:20.724Z,96474.28
2023-08-29T17:44:48.478Z,96468.41
2023-08-29T17:47:16.563Z,96467.91
2023-08-29T17:49:44.303Z,96470.63
2023-08-29T17:52:12.458Z,96472.44
2023-08-29T17:54:40.217Z,96471.13
2023-08-29T17:57:07.917Z,96468.28
2023-08-29T17:59:36.990Z,96464.97
2023-08-29T18:02:05.040Z,96467.66
2023-08-29T18:04:32.753Z,96463.94
2023-08-29T18:07:00.536Z,96465.13
2023-08-29T18:09:28.244Z,96454.88
2023-08-29T18:11:56.060Z,96458.91
2023-08-29T18:14:23.792Z,96458.41
2023-08-29T18:16:52.836Z,96461.09
2023-08-29T18:19:20.978Z,96455.41
2023-08-29T18:21:48.906Z,96470.69
2023-08-29T18:24:16.773Z,96469.50
2023-08-29T18:26:44.472Z,96474.22
2023-08-29T18:29:12.220Z,96471.53
2023-08-29T18:31:40.135Z,96474.38
2023-08-29T18:34:09.168Z,96475.22
2023-08-29T18:36:39.694Z,96480.94
2023-08-29T18:39:09.043Z,96482.59
2023-08-29T18:41:36.892Z,96483.09
2023-08-29T18:44:04.945Z,96485.97
2023-08-29T18:46:33.246Z,96479.91
2023-08-29T18:49:01.062Z,96491.16
2023-08-29T18:51:31.465Z,96490.66
2023-08-29T18:53:59.188Z,96493.69
2023-08-29T18:56:26.937Z,96493.34
2023-08-29T18:58:54.712Z,96497.06
2023-08-29T19:01:22.405Z,96503.75
2023-08-29T19:03:50.320Z,96499.75
2023-08-29T19:06:21.380Z,96502.06
2023-08-29T19:08:52.304Z,96507.44
2023-08-29T19:11:19.973Z,96506.13
2023-08-29T19:13:47.763Z,96503.44
2023-08-29T19:16:15.595Z,96510.81
2023-08-29T19:18:43.385Z,96504.97
2023-08-29T19:21:11.039Z,96498.72
2023-08-29T19:23:38.870Z,96505.78
2023-08-29T19:26:07.904Z,96504.75
2023-08-29T19:28:35.707Z,96497.72
2023-08-29T19:31:03.475Z,96502.06
2023-08-29T19:33:31.350Z,96495.03
2023-08-29T19:36:00.480Z,96501.41
2023-08-29T19:38:28.129Z,96497.72
2023-08-29T19:40:57.353Z,96504.97
2023-08-29T19:43:26.742Z,96508.47
2023-08-29T19:45:54.424Z,96500.41
2023-08-29T19:48:22.177Z,96502.28
2023-08-29T19:50:49.856Z,96503.75
2023-08-29T19:53:18.848Z,96500.09
2023-08-29T19:55:47.208Z,96502.25
2023-08-29T19:58:15.483Z,96503.59
2023-08-29T20:00:44.680Z,96496.38
2023-08-29T20:03:12.391Z,96500.41
2023-08-29T20:05:40.205Z,96505.78
2023-08-29T20:08:08.674Z,96496.03
2023-08-29T20:10:37.477Z,96499.91
2023-08-29T20:13:05.810Z,96492.69
2023-08-29T20:15:33.470Z,96494.88
2023-08-29T20:18:02.496Z,96488.66
2023-08-29T20:20:30.195Z,96485.13
2023-08-29T20:22:57.849Z,96485.63
2023-08-29T20:25:26.183Z,96479.25
2023-08-29T20:27:53.887Z,96474.88
2023-08-29T20:30:22.095Z,96479.41
2023-08-29T20:32:49.972Z,96473.88
2023-08-29T20:35:19.186Z,96482.44
2023-08-29T20:37:46.767Z,96476.91
2023-08-29T20:40:15.589Z,96479.91
2023-08-29T20:42:43.287Z,96480.59
2023-08-29T20:45:12.170Z,96483.97
2023-08-29T20:47:40.039Z,96483.09
2023-08-29T20:50:08.587Z,96479.91
2023-08-29T20:52:37.708Z,96475.56
2023-08-29T20:55:06.159Z,96479.91
2023-08-29T20:57:33.916Z,96478.94
2023-08-29T21:00:01.642Z,96468.34
2023-08-29T21:02:29.537Z,96474.53
2023-08-29T21:04:58.505Z,96468.50
2023-08-29T21:07:26.136Z,96472.19
2023-08-29T21:09:55.132Z,96473.06
2023-08-29T21:12:23.197Z,96472.19
2023-08-29T21:14:51.059Z,96463.47
2023-08-29T21:17:20.721Z,96466.81
2023-08-29T21:19:48.414Z,96477.22
2023-08-29T21:22:16.057Z,96468.84
2023-08-29T21:24:44.155Z,96468.50
2023-08-29T21:27:13.668Z,96468.19
2023-08-29T21:29:41.317Z,96465.50
2023-08-29T21:32:09.018Z,96464.81
2023-08-29T21:34:36.690Z,96471.19
2023-08-29T21:37:04.592Z,96467.84
2023-08-29T21:39:33.062Z,96460.13
2023-08-29T21:42:00.758Z,96456.25
2023-08-29T21:44:29.856Z,96453.75
2023-08-29T21:46:57.356Z,96451.56
2023-08-29T21:49:24.993Z,96446.69
2023-08-29T21:51:52.642Z,96446.38
2023-08-29T21:54:20.286Z,96441.34
2023-08-29T21:56:47.933Z,96437.81
2023-08-29T21:59:15.583Z,96439.16
2023-08-29T22:01:44.856Z,96440.31
2023-08-29T22:04:12.853Z,96440.50
2023-08-29T22:06:40.504Z,96430.25
2023-08-29T22:09:08.211Z,96425.88
2023-08-29T22:11:35.881Z,96420.19
2023-08-29T22:14:03.615Z,96418.16
2023-08-29T22:16:31.277Z,96415.97
2023-08-29T22:19:00.265Z,96415.16
2023-08-29T22:21:27.915Z,96419.69
2023-08-29T22:23:55.771Z,96420.84
2023-08-29T22:26:23.604Z,96421.53
2023-08-29T22:28:51.285Z,96422.22
2023-08-29T22:31:19.038Z,96418.00
2023-08-29T22:33:46.716Z,96418.66
2023-08-29T22:36:15.975Z,96417.81
2023-08-29T22:38:43.620Z,96413.66
2023-08-29T22:41:21.349Z,96414.16
2023-08-29T22:43:52.917Z,96412.63
2023-08-29T22:46:20.589Z,96421.53
2023-08-29T22:48:48.232Z,96420.84
2023-08-29T22:51:17.239Z,96423.53
2023-08-29T22:53:46.953Z,96426.91
2023-08-29T22:56:15.128Z,96422.38
2023-08-29T22:58:42.778Z,96421.69
2023-08-29T23:01:10.429Z,96421.00
2023-08-29T23:03:38.141Z,96415.63
2023-08-29T23:06:06.614Z,96422.34
2023-08-29T23:08:35.640Z,96427.22
2023-08-29T23:11:05.237Z,96420.16
2023-08-29T23:13:32.920Z,96419.00
2023-08-29T23:16:03.980Z,96426.03
2023-08-29T23:18:31.724Z,96424.38
2023-08-29T23:20:59.401Z,96431.53
2023-08-29T23:23:27.043Z,96428.84
2023-08-29T23:25:57.167Z,96422.66
2023-08-29T23:28:25.397Z,96421.47
2023-08-29T23:30:54.030Z,96417.25
2023-08-29T23:33:22.722Z,96421.78
2023-08-29T23:35:50.482Z,96424.00
2023-08-29T23:38:18.656Z,96423.81
2023-08-29T23:40:48.910Z,96414.78
2023-08-29T23:43:18.619Z,96414.94
2023-08-29T23:45:46.651Z,96408.56
2023-08-29T23:48:13.439Z,96412.41
2023-08-29T23:50:41.129Z,96411.59
2023-08-29T23:53:09.032Z,96412.41
2023-08-29T23:55:36.720Z,96412.25
2023-08-29T23:58:04.740Z,96413.28
